Time;durP1;ratioP1;P1;durP2;ratioP2;P2;SDS_P1;SDS_P2;PMS_P1;PMS_P2;Temp;Humidity;BMP_temperature;BMP_pressure;BME280_temperature;BME280_humidity;BME280_pressure;Samples;Min_cycle;Max_cycle;Signal;HPM_P1;HPM_P2
2022/12/29 00:00:39;;;;;;;7.85;4.65;;;;;;;6.60;69.14;100015.48;1936592;91;27747;-59
2022/12/29 00:03:47;;;;;;;13.10;4.97;;;;;;;6.58;69.19;100018.66;1937068;91;27716;-59
2022/12/29 00:06:50;;;;;;;10.58;5.17;;;;;;;6.57;69.27;100018.26;1936744;91;31469;-59
2022/12/29 00:09:52;;;;;;;6.70;4.05;;;;;;;6.57;69.34;100025.77;1936466;91;34141;-63
2022/12/29 00:16:14;;;;;;;7.35;4.50;;;;;;;6.58;69.37;100025.31;1937017;91;27708;-58
2022/12/29 00:36:03;;;;;;;8.50;4.05;;;;;;;6.58;69.34;99999.55;1936609;91;29905;-70
2022/12/29 00:45:53;;;;;;;6.17;3.20;;;;;;;6.57;69.09;99981.00;1936821;91;30828;-69
2022/12/29 00:52:15;;;;;;;4.65;3.08;;;;;;;6.58;68.84;99967.62;1936563;91;29883;-60
2022/12/29 00:55:17;;;;;;;5.15;2.92;;;;;;;6.58;68.85;99962.30;1936742;91;31725;-60
2022/12/29 00:58:19;;;;;;;6.83;3.40;;;;;;;6.61;68.90;99952.87;1937057;91;33316;-60
2022/12/29 01:01:21;;;;;;;4.10;2.92;;;;;;;6.62;68.83;99957.27;1936383;91;29622;-63
2022/12/29 01:04:25;;;;;;;6.60;3.12;;;;;;;6.63;68.77;99952.34;1936842;91;27605;-66
2022/12/29 01:07:26;;;;;;;7.00;3.33;;;;;;;6.65;68.79;99951.83;1936617;91;29071;-70
2022/12/29 01:10:28;;;;;;;5.87;3.15;;;;;;;6.65;68.72;99949.61;1936787;91;31119;-59
2022/12/29 01:13:30;;;;;;;7.12;3.00;;;;;;;6.66;68.68;99946.02;1936356;91;33832;-67
2022/12/29 01:16:33;;;;;;;5.53;3.47;;;;;;;6.67;68.55;99945.98;1936833;91;29998;-61
2022/12/29 01:19:37;;;;;;;5.03;2.25;;;;;;;6.68;68.77;99943.73;1936518;91;27646;-68
2022/12/29 01:22:42;;;;;;;5.67;3.35;;;;;;;6.68;68.76;99946.39;1936641;91;28200;-68
2022/12/29 01:25:44;;;;;;;8.00;3.20;;;;;;;6.68;68.77;99942.39;1936876;91;31036;-70
2022/12/29 01:28:46;;;;;;;5.45;3.27;;;;;;;6.69;68.79;99943.25;1936701;91;33015;-68
2022/12/29 01:31:49;;;;;;;6.50;3.45;;;;;;;6.69;68.77;99941.92;1936337;91;30466;-65
2022/12/29 01:34:51;;;;;;;6.35;3.05;;;;;;;6.67;68.78;99934.01;1936720;91;27650;-64
2022/12/29 01:37:53;;;;;;;6.20;3.25;;;;;;;6.66;68.72;99930.94;1936365;91;29960;-69
2022/12/29 01:40:55;;;;;;;4.47;3.33;;;;;;;6.66;68.84;99930.94;1942842;91;32476;-66
2022/12/29 01:44:00;;;;;;;5.25;3.47;;;;;;;6.66;68.81;99924.73;1944516;91;33588;-67
2022/12/29 01:47:02;;;;;;;4.60;3.00;;;;;;;6.65;68.75;99923.88;1944520;91;29734;-59
2022/12/29 01:50:15;;;;;;;5.03;2.83;;;;;;;6.64;68.82;99926.14;1944474;91;27759;-59
2022/12/29 01:56:47;;;;;;;6.58;3.55;;;;;;;6.60;68.74;99923.66;2074228;85;27698;-60
2022/12/29 01:59:54;;;;;;;6.55;3.33;;;;;;;6.57;68.79;99917.13;2066017;86;33053;-60
2022/12/29 02:02:56;;;;;;;6.87;3.47;;;;;;;6.54;68.77;99912.32;2049582;86;30425;-60
2022/12/29 02:06:18;;;;;;;5.25;3.12;;;;;;;6.50;68.82;99906.70;2100899;84;27701;-60
2022/12/29 02:09:20;;;;;;;7.17;3.55;;;;;;;6.49;68.81;99906.30;2096043;84;29146;-60
2022/12/29 02:12:23;;;;;;;5.33;3.05;;;;;;;6.46;68.92;99893.11;2101094;84;31163;-60
2022/12/29 02:15:56;;;;;;;6.37;3.12;;;;;;;6.43;68.93;99890.59;2101268;84;33346;-60
2022/12/29 02:19:31;;;;;;;6.65;3.55;;;;;;;6.43;68.97;99881.73;2100809;84;30896;-60
2022/12/29 02:22:41;;;;;;;5.35;2.92;;;;;;;6.41;69.03;99875.59;2100847;84;27689;-60
2022/12/29 02:26:17;;;;;;;5.87;3.22;;;;;;;6.39;69.06;99882.32;2101016;84;29558;-60
2022/12/29 02:29:50;;;;;;;4.85;3.27;;;;;;;6.36;69.04;99880.66;2101423;84;32173;-60
2022/12/29 02:33:03;;;;;;;5.25;3.12;;;;;;;6.32;69.10;99874.16;2101179;84;33112;-60
2022/12/29 02:36:27;;;;;;;7.03;3.10;;;;;;;6.29;69.11;99876.97;2100783;84;30067;-60
2022/12/29 02:39:57;;;;;;;4.83;2.60;;;;;;;6.26;69.16;99868.62;2100891;84;27659;-60
2022/12/29 02:43:24;;;;;;;6.42;3.25;;;;;;;6.23;69.17;99868.29;2101365;84;28914;-60
2022/12/29 02:46:43;;;;;;;4.92;3.17;;;;;;;6.22;69.18;99864.34;2101068;84;31193;-60
2022/12/29 02:50:24;;;;;;;5.17;2.87;;;;;;;6.20;69.16;99857.77;2100194;84;34079;-60
2022/12/29 02:56:47;;;;;;;5.67;2.77;;;;;;;6.16;69.13;99852.62;2101018;84;27720;-60
2022/12/29 02:59:59;;;;;;;5.70;3.25;;;;;;;6.13;69.12;99850.94;2100962;84;30085;-59
2022/12/29 03:03:12;;;;;;;4.55;2.98;;;;;;;6.11;69.21;99851.48;2100699;84;31026;-59
2022/12/29 03:06:22;;;;;;;5.03;3.05;;;;;;;6.11;69.19;99846.61;2101233;84;32766;-59
2022/12/29 03:09:38;;;;;;;4.80;2.50;;;;;;;6.12;69.22;99853.66;2101246;84;29657;-59
2022/12/29 03:16:49;;;;;;;7.35;2.90;;;;;;;6.13;69.20;99846.09;2101098;84;29968;-59
2022/12/29 03:19:52;;;;;;;4.33;2.55;;;;;;;6.15;69.21;99851.75;2100397;84;32244;-59
2022/12/29 03:23:00;;;;;;;8.30;4.10;;;;;;;6.17;69.14;99847.72;2101320;84;33794;-60
2022/12/29 03:26:06;;;;;;;5.40;3.87;;;;;;;6.17;69.19;99836.60;2101370;84;29664;-59
2022/12/29 03:29:09;;;;;;;4.53;3.27;;;;;;;6.22;69.17;99841.73;2101416;84;28194;-59
2022/12/29 03:32:13;;;;;;;4.65;3.30;;;;;;;6.24;69.15;99841.21;2101068;84;29989;-59
2022/12/29 03:35:17;;;;;;;4.17;3.10;;;;;;;6.27;69.22;99843.76;2101418;84;32214;-60
2022/12/29 03:38:26;;;;;;;7.67;4.43;;;;;;;6.32;69.30;99854.21;2101258;84;33028;-59
2022/12/29 03:41:32;;;;;;;8.48;4.37;;;;;;;6.34;69.42;99855.02;2101215;84;30410;-59
2022/12/29 03:44:38;;;;;;;9.30;4.80;;;;;;;6.37;69.59;99856.23;2101345;84;27756;-59
2022/12/29 03:47:41;;;;;;;11.85;6.12;;;;;;;6.38;69.79;99847.33;2101268;84;28648;-59
2022/12/29 03:50:43;;;;;;;17.42;8.08;;;;;;;6.41;70.08;99844.55;2101237;84;31934;-59
2022/12/29 03:53:45;;;;;;;12.75;6.05;;;;;;;6.44;70.16;99835.57;2100829;84;34227;-60
2022/12/29 03:56:47;;;;;;;8.10;5.53;;;;;;;6.44;70.23;99839.12;2082080;83;30833;-59
2022/12/29 03:59:49;;;;;;;9.90;4.67;;;;;;;6.45;70.29;99841.30;2076003;85;28166;-60
2022/12/29 04:02:51;;;;;;;6.85;3.47;;;;;;;6.45;70.30;99843.52;2075830;85;29512;-60
2022/12/29 04:05:53;;;;;;;8.40;3.00;;;;;;;6.47;70.30;99848.76;2075422;85;31874;-60
2022/12/29 04:08:54;;;;;;;5.12;2.80;;;;;;;6.48;70.46;99847.83;2075393;85;33178;-60
2022/12/29 04:11:56;;;;;;;4.35;2.85;;;;;;;6.50;70.57;99838.85;2075890;85;29390;-60
2022/12/29 04:14:58;;;;;;;4.60;2.98;;;;;;;6.51;70.64;99837.92;2076006;85;27670;-60
2022/12/29 04:18:00;;;;;;;4.28;2.98;;;;;;;6.53;70.58;99836.55;2075764;85;29845;-60
2022/12/29 04:21:05;;;;;;;7.22;3.37;;;;;;;6.53;70.42;99822.77;2075431;85;32203;-60
2022/12/29 04:24:07;;;;;;;;;;;;;;;6.53;70.37;99828.09;2078296;85;33183;-60
2022/12/29 04:27:09;;;;;;;5.47;2.87;;;;;;;6.54;70.29;99819.63;2075471;85;30174;-60
2022/12/29 04:30:12;;;;;;;7.47;3.20;;;;;;;6.52;70.09;99805.06;2075640;85;27610;-60
2022/12/29 04:33:14;;;;;;;6.40;3.67;;;;;;;6.52;70.05;99802.41;2075870;85;29355;-59
2022/12/29 04:36:16;;;;;;;5.35;3.08;;;;;;;6.54;70.05;99802.33;2075736;85;31758;-59
2022/12/29 04:39:22;;;;;;;7.60;3.20;;;;;;;6.54;69.99;99796.55;2075444;85;34204;-60
2022/12/29 04:42:24;;;;;;;5.90;4.10;;;;;;;6.55;69.81;99801.40;2075469;85;30428;-60
2022/12/29 04:45:29;;;;;;;7.40;4.08;;;;;;;6.56;69.75;99800.47;2075397;85;27732;-60
2022/12/29 04:48:31;;;;;;;7.75;3.87;;;;;;;6.57;69.68;99806.68;2075910;85;28666;-60
2022/12/29 04:51:33;;;;;;;6.85;4.25;;;;;;;6.58;69.65;99798.62;2075616;85;31773;-60
2022/12/29 04:54:36;;;;;;;4.83;3.10;;;;;;;6.61;69.65;99804.30;2075391;85;33846;-60
2022/12/29 04:57:38;;;;;;;5.40;2.95;;;;;;;6.62;69.40;99806.03;2098831;84;29404;-60
2022/12/29 05:00:40;;;;;;;5.45;2.95;;;;;;;6.65;69.53;99795.23;2101322;84;27629;-60
2022/12/29 05:03:41;;;;;;;5.60;3.27;;;;;;;6.67;69.48;99800.92;2101140;84;29857;-60
2022/12/29 05:06:43;;;;;;;6.28;2.92;;;;;;;6.71;69.39;99796.32;2101126;84;31844;-60
2022/12/29 05:09:46;;;;;;;5.35;2.92;;;;;;;6.74;69.22;99798.86;2101055;84;32734;-60
2022/12/29 05:12:48;;;;;;;5.25;2.58;;;;;;;6.77;69.26;99799.19;2101117;84;30440;-61
2022/12/29 05:15:54;;;;;;;5.05;2.83;;;;;;;6.79;69.24;99796.00;2100937;84;27690;-60
2022/12/29 05:18:56;;;;;;;4.12;3.05;;;;;;;6.82;69.21;99790.06;2101121;84;29841;-60
2022/12/29 05:21:57;;;;;;;8.35;4.40;;;;;;;6.85;69.02;99785.10;2101210;84;31841;-61
2022/12/29 05:24:59;;;;;;;10.25;4.85;;;;;;;6.87;68.94;99779.70;2100763;84;34316;-60
2022/12/29 05:28:01;;;;;;;14.03;6.12;;;;;;;6.89;68.90;99786.67;2100818;84;30811;-61
2022/12/29 05:31:03;;;;;;;13.93;6.50;;;;;;;6.92;68.67;99775.05;2101281;84;27621;-60
2022/12/29 05:34:05;;;;;;;15.88;7.22;;;;;;;6.93;68.71;99765.65;2101212;84;29051;-60
2022/12/29 05:37:07;;;;;;;12.58;6.03;;;;;;;6.94;68.64;99760.73;2100755;84;32219;-60
2022/12/29 05:40:10;;;;;;;8.60;4.30;;;;;;;6.97;68.58;99755.72;2100839;84;33417;-61
2022/12/29 05:43:13;;;;;;;4.97;3.47;;;;;;;6.98;68.49;99761.45;2100873;84;29788;-61
2022/12/29 05:46:15;;;;;;;5.42;2.83;;;;;;;6.99;68.33;99757.41;2100573;84;27676;-61
2022/12/29 05:49:17;;;;;;;4.45;3.20;;;;;;;7.02;68.17;99752.41;2101275;84;29641;-61
2022/12/29 05:52:20;;;;;;;7.70;2.92;;;;;;;7.03;68.08;99750.62;2101186;84;31023;-61
2022/12/29 05:55:21;;;;;;;5.17;3.27;;;;;;;7.06;67.86;99750.45;2101010;84;33846;-61
2022/12/29 05:58:23;;;;;;;5.50;3.33;;;;;;;7.08;67.89;99751.27;2101225;84;30817;-61
2022/12/29 06:01:25;;;;;;;5.60;3.35;;;;;;;7.09;67.73;99751.66;2101172;84;27637;-61
2022/12/29 06:04:27;;;;;;;6.75;3.87;;;;;;;7.12;67.55;99755.53;2101445;84;29035;-61
2022/12/29 06:07:29;;;;;;;12.13;6.15;;;;;;;7.14;67.75;99753.66;2101080;84;30810;-61
2022/12/29 06:10:31;;;;;;;12.07;6.65;;;;;;;7.17;67.71;99756.20;2100747;84;34241;-61
2022/12/29 06:13:33;;;;;;;14.35;6.85;;;;;;;7.20;67.57;99749.86;2100788;84;30069;-61
2022/12/29 06:16:34;;;;;;;9.00;4.80;;;;;;;7.21;67.49;99756.92;2101717;84;27662;-61
2022/12/29 06:19:36;;;;;;;8.95;4.25;;;;;;;7.21;67.18;99754.25;2100977;84;30118;-61
2022/12/29 06:22:39;;;;;;;5.58;4.30;;;;;;;7.21;67.28;99749.78;2101034;84;31734;-61
2022/12/29 06:25:41;;;;;;;4.90;3.30;;;;;;;7.22;67.30;99750.17;2101238;84;33421;-62
2022/12/29 06:28:42;;;;;;;7.50;3.25;;;;;;;7.23;67.18;99748.39;2101577;84;30961;-62
2022/12/29 06:31:45;;;;;;;6.03;4.20;;;;;;;7.23;66.95;99741.73;2101275;84;27541;-61
2022/12/29 06:34:47;;;;;;;8.08;3.92;;;;;;;7.24;66.86;99743.47;2101368;84;28707;-61
2022/12/29 06:37:49;;;;;;;8.18;3.92;;;;;;;7.23;66.66;99742.59;2101322;84;31379;-61
2022/12/29 06:40:51;;;;;;;7.28;4.47;;;;;;;7.24;66.85;99734.14;2100888;84;34179;-61
2022/12/29 06:43:53;;;;;;;6.58;3.58;;;;;;;7.25;66.73;99741.20;2101239;84;30773;-62
2022/12/29 06:46:55;;;;;;;5.40;3.80;;;;;;;7.25;66.63;99741.20;2100984;84;27666;-61
2022/12/29 06:49:58;;;;;;;5.62;3.65;;;;;;;7.25;66.64;99744.72;2100863;84;30065;-61
2022/12/29 06:53:00;;;;;;;8.20;4.28;;;;;;;7.27;66.36;99747.33;2100883;84;32276;-61
2022/12/29 06:56:02;;;;;;;6.80;4.08;;;;;;;7.28;66.27;99753.91;2097432;84;34192;-62
2022/12/29 06:59:04;;;;;;;6.70;4.05;;;;;;;7.30;66.44;99755.16;2075887;85;30831;-64
2022/12/29 07:02:06;;;;;;;8.60;4.17;;;;;;;7.32;66.53;99751.11;2076071;85;27707;-61
2022/12/29 07:05:10;;;;;;;5.58;3.90;;;;;;;7.36;66.50;99756.71;2075469;85;29934;-61
2022/12/29 07:08:11;;;;;;;11.50;4.62;;;;;;;7.38;66.47;99758.81;2075910;85;31026;-62
2022/12/29 07:11:13;;;;;;;9.38;4.25;;;;;;;7.39;66.63;99754.77;2075511;85;33564;-63
2022/12/29 07:14:15;;;;;;;10.53;4.35;;;;;;;7.40;66.41;99755.16;2075891;85;30741;-61
2022/12/29 07:17:17;;;;;;;8.55;4.37;;;;;;;7.43;66.36;99762.14;2076179;85;27711;-61
2022/12/29 07:20:18;;;;;;;7.85;4.25;;;;;;;7.43;66.26;99759.03;2075704;85;29654;-62
2022/12/29 07:23:21;;;;;;;11.63;5.12;;;;;;;7.44;66.37;99758.55;2075890;85;31707;-62
2022/12/29 07:26:23;;;;;;;9.18;5.20;;;;;;;7.43;66.33;99757.70;2075462;85;33831;-62
2022/12/29 07:29:25;;;;;;;7.97;4.42;;;;;;;7.45;66.34;99760.28;2075556;85;30850;-61
2022/12/29 07:32:27;;;;;;;10.23;4.58;;;;;;;7.47;66.33;99760.20;2075589;85;27753;-62
2022/12/29 07:35:28;;;;;;;10.50;4.58;;;;;;;7.48;66.31;99755.27;2075806;85;29865;-61
2022/12/29 07:38:30;;;;;;;6.28;4.33;;;;;;;7.50;66.22;99761.39;2075929;85;31808;-63
2022/12/29 07:41:32;;;;;;;9.95;4.78;;;;;;;7.52;66.12;99772.85;2075558;85;34004;-62
2022/12/29 07:44:36;;;;;;;7.62;4.42;;;;;;;7.53;66.27;99766.59;2075909;85;30733;-61
2022/12/29 07:47:38;;;;;;;11.28;6.00;;;;;;;7.55;66.22;99760.73;2075852;85;27619;-61
2022/12/29 07:50:39;;;;;;;7.78;4.92;;;;;;;7.58;66.15;99762.77;2075503;85;29147;-61
2022/12/29 07:53:42;;;;;;;7.60;4.55;;;;;;;7.60;66.18;99762.72;2075901;85;30416;-61
2022/12/29 07:56:45;;;;;;;7.70;4.95;;;;;;;7.66;66.05;99757.57;2080964;85;34151;-62
2022/12/29 07:59:47;;;;;;;9.45;5.30;;;;;;;7.70;66.08;99759.13;2095243;85;29809;-64
2022/12/29 08:02:49;;;;;;;9.33;5.10;;;;;;;7.74;66.09;99762.94;2095496;85;27749;-62
2022/12/29 08:05:52;;;;;;;8.33;5.60;;;;;;;7.80;66.10;99770.23;2095166;85;29415;-63
2022/12/29 08:08:57;;;;;;;7.75;4.17;;;;;;;7.84;65.95;99766.50;2095233;85;31911;-62
2022/12/29 08:11:59;;;;;;;7.83;4.65;;;;;;;7.89;66.04;99765.82;2095332;84;33085;-61
2022/12/29 08:15:02;;;;;;;9.33;5.03;;;;;;;7.97;66.08;99771.64;2095253;85;30479;-62
2022/12/29 08:18:05;;;;;;;8.05;4.65;;;;;;;8.04;66.01;99773.09;2095304;85;27639;-62
2022/12/29 08:21:07;;;;;;;6.65;4.55;;;;;;;8.13;65.91;99773.58;2095552;85;28679;-62
2022/12/29 08:24:10;;;;;;;9.60;5.28;;;;;;;8.23;66.01;99779.34;2095107;85;31910;-61
2022/12/29 08:27:12;;;;;;;12.33;5.03;;;;;;;8.30;65.63;99772.29;2095098;85;34187;-62
2022/12/29 08:30:15;;;;;;;9.90;5.10;;;;;;;8.37;65.53;99782.19;2095504;84;29648;-61
2022/12/29 08:33:17;;;;;;;7.28;5.10;;;;;;;8.43;65.63;99793.06;2095615;85;27715;-61
2022/12/29 08:36:19;;;;;;;11.57;5.03;;;;;;;8.47;65.42;99792.83;2095251;85;29120;-61
2022/12/29 08:39:21;;;;;;;7.42;5.10;;;;;;;8.51;65.43;99794.91;2095532;84;32206;-61
2022/12/29 08:42:23;;;;;;;9.68;5.83;;;;;;;8.55;65.33;99787.60;2095575;85;33148;-61
2022/12/29 08:45:25;;;;;;;11.75;5.47;;;;;;;8.61;65.08;99780.63;2095555;85;30781;-62
2022/12/29 08:48:27;;;;;;;11.88;6.20;;;;;;;8.71;65.45;99776.55;2095994;85;27607;-61
2022/12/29 08:51:29;;;;;;;14.07;6.15;;;;;;;8.83;65.33;99778.22;2095245;84;29997;-61
2022/12/29 08:54:31;;;;;;;19.98;6.83;;;;;;;8.91;65.03;99771.55;2095250;85;32346;-60
2022/12/29 08:57:34;;;;;;;9.85;5.65;;;;;;;8.96;65.07;99780.66;2097481;84;34390;-60
2022/12/29 09:00:35;;;;;;;11.40;6.17;;;;;;;9.03;64.98;99792.73;2101093;84;30471;-61
2022/12/29 09:03:38;;;;;;;9.98;5.90;;;;;;;9.08;64.99;99784.02;2101110;84;27622;-61
2022/12/29 09:06:40;;;;;;;10.00;5.25;;;;;;;9.11;64.51;99777.19;2100681;84;29291;-61
2022/12/29 09:09:41;;;;;;;9.95;6.60;;;;;;;9.13;64.45;99783.77;2100694;84;31889;-60
2022/12/29 09:12:43;;;;;;;10.95;5.75;;;;;;;9.15;64.66;99793.91;2100773;84;34296;-61
2022/12/29 09:15:46;;;;;;;10.85;5.37;;;;;;;9.17;64.58;99792.03;2101067;84;30443;-61
2022/12/29 09:18:48;;;;;;;10.88;5.92;;;;;;;9.26;64.61;99785.34;2100908;84;27637;-61
2022/12/29 09:21:51;;;;;;;11.85;5.12;;;;;;;9.32;64.38;99782.81;2100811;84;29903;-61
2022/12/29 09:24:53;;;;;;;10.53;5.58;;;;;;;9.38;64.22;99775.33;2100797;84;31790;-60
2022/12/29 09:27:55;;;;;;;9.55;4.85;;;;;;;9.44;64.06;99787.50;2101124;84;34107;-61
2022/12/29 09:30:58;;;;;;;9.23;4.65;;;;;;;9.50;64.27;99787.19;2101054;84;30760;-61
2022/12/29 09:34:00;;;;;;;9.60;6.00;;;;;;;9.58;64.12;99790.78;2101202;84;27607;-61
2022/12/29 09:37:02;;;;;;;8.35;5.90;;;;;;;9.65;64.22;99794.87;2100916;84;28704;-61
2022/12/29 09:40:06;;;;;;;10.20;5.30;;;;;;;9.76;64.23;99798.77;2100893;84;32216;-61
2022/12/29 09:43:42;;;;;;;8.07;5.00;;;;;;;9.82;63.96;99787.25;2101313;84;32985;-61
2022/12/29 09:46:50;;;;;;;11.30;5.92;;;;;;;9.90;63.93;99782.81;2101123;84;30009;-61
2022/12/29 09:50:10;;;;;;;11.18;5.70;;;;;;;9.99;63.58;99782.32;2101392;84;27624;-61
2022/12/29 09:53:19;;;;;;;10.40;5.85;;;;;;;10.07;63.36;99779.67;2101093;84;28663;-60
2022/12/29 09:56:23;;;;;;;11.40;5.03;;;;;;;10.11;63.06;99775.39;2101058;84;31020;-60
2022/12/29 09:59:40;;;;;;;10.95;5.00;;;;;;;10.16;63.13;99768.46;2100821;84;33005;-61
2022/12/29 10:02:46;;;;;;;7.80;5.20;;;;;;;10.19;63.18;99761.58;2101223;84;31829;-61
2022/12/29 10:06:14;;;;;;;7.65;4.75;;;;;;;10.22;63.07;99757.87;2100656;84;27753;-61
2022/12/29 10:09:44;;;;;;;11.08;5.40;;;;;;;10.22;62.61;99744.00;2099996;84;29599;-60
2022/12/29 10:13:00;;;;;;;8.35;5.37;;;;;;;10.23;62.69;99752.42;2101048;84;30447;-61
2022/12/29 10:16:17;;;;;;;12.63;5.53;;;;;;;10.25;62.68;99748.34;2097046;84;33843;-61
2022/12/29 10:19:41;;;;;;;8.53;4.83;;;;;;;10.26;62.55;99754.08;2086257;84;29789;-61
2022/12/29 10:22:54;;;;;;;7.60;4.70;;;;;;;10.28;62.62;99745.00;2100938;84;27618;-61
2022/12/29 10:25:59;;;;;;;8.28;5.25;;;;;;;10.29;62.29;99737.82;2100560;84;30046;-61
2022/12/29 10:29:08;;;;;;;12.33;5.00;;;;;;;10.29;62.28;99731.12;2082844;84;31035;-61
2022/12/29 10:32:37;;;;;;;9.90;5.70;;;;;;;10.31;61.97;99733.24;2100442;84;33837;-61
2022/12/29 10:35:42;;;;;;;11.78;6.25;;;;;;;10.31;62.04;99725.21;2100911;84;29731;-61
2022/12/29 10:38:56;;;;;;;11.78;6.12;;;;;;;10.32;62.24;99723.80;2100925;84;27747;-61
2022/12/29 10:42:23;;;;;;;8.58;5.28;;;;;;;10.38;62.43;99731.07;2100239;84;29785;-62
2022/12/29 10:45:29;;;;;;;9.73;5.33;;;;;;;10.40;62.22;99727.41;2100128;84;30286;-61
2022/12/29 10:48:34;;;;;;;10.72;5.33;;;;;;;10.42;62.47;99725.50;2101227;84;33117;-61
2022/12/29 10:51:42;;;;;;;6.42;3.45;;;;;;;10.46;62.55;99716.31;2101168;84;35886;-61
2022/12/29 10:54:58;;;;;;;6.03;2.85;;;;;;;10.48;62.27;99719.77;2101303;84;27630;-61
2022/12/29 10:58:04;;;;;;;7.28;3.12;;;;;;;10.49;61.35;99717.48;2092083;84;28625;-60
2022/12/29 11:01:08;;;;;;;6.83;3.77;;;;;;;10.52;61.73;99718.25;2075680;85;31065;-61
2022/12/29 11:04:40;;;;;;;5.47;3.08;;;;;;;10.56;61.06;99719.80;2075503;85;34361;-61
2022/12/29 11:07:42;;;;;;;8.48;3.85;;;;;;;10.60;61.35;99710.16;2039474;87;29647;-61
2022/12/29 11:10:46;;;;;;;4.28;3.05;;;;;;;10.66;60.85;99712.94;2039183;87;27945;-61
2022/12/29 11:13:59;;;;;;;6.10;4.13;;;;;;;10.73;60.86;99706.73;2039706;87;29502;-60
2022/12/29 11:17:03;;;;;;;6.85;3.15;;;;;;;10.79;60.67;99701.87;2039471;87;32181;-60
2022/12/29 11:20:32;;;;;;;10.95;3.87;;;;;;;10.87;60.94;99697.38;2039283;87;34769;-61
2022/12/29 11:23:38;;;;;;;7.03;3.25;;;;;;;10.96;60.73;99692.43;2009629;88;30035;-61
2022/12/29 11:26:41;;;;;;;9.03;3.65;;;;;;;11.03;60.70;99694.64;2010606;88;27780;-61
2022/12/29 11:29:44;;;;;;;6.33;3.60;;;;;;;11.09;60.47;99691.56;1989320;88;28716;-60
2022/12/29 11:32:52;;;;;;;5.78;3.10;;;;;;;11.17;60.38;99691.58;2010336;88;31191;-61
2022/12/29 11:36:01;;;;;;;7.15;3.35;;;;;;;11.22;60.40;99691.67;2010231;88;34172;-61
2022/12/29 11:39:04;;;;;;;5.58;3.27;;;;;;;11.28;60.37;99691.77;2009825;88;30477;-61
2022/12/29 11:42:13;;;;;;;6.47;3.27;;;;;;;11.33;60.05;99684.80;2010467;88;27876;-62
2022/12/29 11:45:25;;;;;;;10.03;3.50;;;;;;;11.37;59.86;99687.19;2020568;87;29965;-61
2022/12/29 11:48:39;;;;;;;9.88;3.37;;;;;;;11.43;59.50;99672.98;2025020;87;31033;-62
2022/12/29 11:51:47;;;;;;;9.48;3.52;;;;;;;11.46;59.86;99677.70;2024684;87;31941;-61
2022/12/29 11:54:49;;;;;;;5.75;3.90;;;;;;;11.52;59.76;99670.58;2025182;87;29814;-61
2022/12/29 11:57:53;;;;;;;5.55;3.60;;;;;;;11.58;59.29;99676.52;2032245;85;28469;-61
2022/12/29 12:00:56;;;;;;;8.05;3.27;;;;;;;11.61;59.66;99666.94;2090213;85;28594;-61
2022/12/29 12:04:09;;;;;;;5.08;3.25;;;;;;;11.63;59.60;99675.76;2089527;85;32025;-61
2022/12/29 12:07:19;;;;;;;6.78;3.47;;;;;;;11.65;59.49;99674.69;2089238;84;33831;-62
2022/12/29 12:10:38;;;;;;;8.50;3.67;;;;;;;11.67;59.01;99676.80;2089603;84;29124;-62
2022/12/29 12:14:07;;;;;;;5.28;3.60;;;;;;;11.67;59.38;99672.77;2089952;84;27714;-61
2022/12/29 12:17:23;;;;;;;7.15;3.58;;;;;;;11.64;59.21;99671.63;2089588;85;29561;-61
2022/12/29 12:20:50;;;;;;;5.87;3.42;;;;;;;11.63;59.26;99660.50;2089531;85;31921;-61
2022/12/29 12:24:25;;;;;;;7.50;3.45;;;;;;;11.62;59.03;99667.33;2089529;85;34198;-61
2022/12/29 12:27:43;;;;;;;7.75;3.62;;;;;;;11.58;59.26;99664.45;2089490;85;29694;-62
2022/12/29 12:30:49;;;;;;;9.15;4.20;;;;;;;11.51;58.99;99659.47;2030866;87;27735;-61
2022/12/29 12:33:56;;;;;;;9.25;5.05;;;;;;;11.43;59.16;99656.42;2044629;87;28934;-61
2022/12/29 12:37:15;;;;;;;8.43;4.58;;;;;;;11.37;59.21;99650.10;2044480;86;31835;-61
2022/12/29 12:40:38;;;;;;;7.90;3.83;;;;;;;11.28;59.19;99655.56;2045051;87;33065;-61
2022/12/29 12:43:51;;;;;;;9.63;4.15;;;;;;;11.23;59.27;99661.72;2044680;87;29700;-61
2022/12/29 12:46:58;;;;;;;10.00;4.33;;;;;;;11.15;59.42;99664.88;2041448;87;28141;-61
2022/12/29 12:50:28;;;;;;;10.08;4.53;;;;;;;11.08;59.61;99653.69;2044319;86;28659;-61
2022/12/29 12:54:09;;;;;;;15.85;4.72;;;;;;;11.01;59.52;99654.12;2044400;87;31835;-61
2022/12/29 12:57:22;;;;;;;10.08;4.35;;;;;;;10.94;59.71;99653.65;2044421;87;33499;-62
2022/12/29 13:00:25;;;;;;;10.82;4.37;;;;;;;10.85;59.90;99653.73;2034229;86;31047;-62
2022/12/29 13:03:32;;;;;;;9.55;4.47;;;;;;;10.79;59.97;99653.64;2101172;84;27697;-61
2022/12/29 13:07:01;;;;;;;8.80;4.53;;;;;;;10.72;60.16;99652.30;2100519;84;29015;-61
2022/12/29 13:10:17;;;;;;;12.25;4.40;;;;;;;10.67;60.23;99646.36;2097963;84;31091;-61
2022/12/29 13:13:40;;;;;;;10.13;5.58;;;;;;;10.61;60.34;99650.27;2100958;84;34345;-61
2022/12/29 13:17:08;;;;;;;17.02;6.70;;;;;;;10.57;60.43;99656.77;2100747;84;29495;-61
2022/12/29 13:20:56;;;;;;;8.75;5.70;;;;;;;10.54;60.46;99652.92;2101705;84;27703;-61
2022/12/29 13:24:24;;;;;;;15.70;10.10;;;;;;;10.49;60.52;99652.36;2102037;84;29058;-61
2022/12/29 13:27:52;;;;;;;13.30;8.23;;;;;;;10.44;60.69;99651.77;2101181;84;30511;-61
2022/12/29 13:31:24;;;;;;;11.30;7.35;;;;;;;10.40;60.80;99655.11;2100765;84;34197;-61
2022/12/29 13:34:49;;;;;;;26.37;6.60;;;;;;;10.37;60.85;99657.93;2101076;84;29801;-61
2022/12/29 13:37:59;;;;;;;14.47;6.70;;;;;;;10.32;61.00;99663.56;2101163;84;27661;-61
2022/12/29 13:41:21;;;;;;;14.03;6.60;;;;;;;10.32;61.09;99665.36;2100704;84;29928;-61
2022/12/29 13:44:30;;;;;;;13.53;6.92;;;;;;;10.32;61.18;99672.93;2100480;84;31252;-64
2022/12/29 13:47:42;;;;;;;15.30;7.65;;;;;;;10.33;61.23;99678.67;2101046;84;32810;-64
2022/12/29 13:50:50;;;;;;;10.85;6.97;;;;;;;10.34;61.23;99684.38;2101119;84;29633;-64
2022/12/29 13:54:09;;;;;;;11.03;7.08;;;;;;;10.36;61.12;99681.64;2100876;84;27728;-64
2022/12/29 13:57:50;;;;;;;14.23;7.15;;;;;;;10.38;61.03;99687.80;2101346;84;29447;-65
2022/12/29 14:01:17;;;;;;;13.53;7.10;;;;;;;10.40;60.70;99693.05;2100682;84;32264;-63
2022/12/29 14:04:26;;;;;;;16.48;10.65;;;;;;;10.42;60.80;99691.16;2079151;84;34183;-64
2022/12/29 14:07:30;;;;;;;10.13;6.22;;;;;;;10.41;60.81;99690.77;2101321;84;29722;-64
2022/12/29 14:10:38;;;;;;;10.43;5.67;;;;;;;10.43;60.63;99698.23;2101163;84;27637;-64
2022/12/29 14:13:43;;;;;;;11.53;5.62;;;;;;;10.42;60.79;99697.84;2101133;84;29478;-65
2022/12/29 14:16:46;;;;;;;14.87;8.43;;;;;;;10.41;60.89;99699.67;2101045;84;55929;-64
2022/12/29 14:19:52;;;;;;;11.03;7.55;;;;;;;10.39;61.28;99701.58;2100685;84;33022;-65
2022/12/29 14:23:15;;;;;;;16.85;8.63;;;;;;;10.34;61.41;99701.79;2101037;84;29857;-65
2022/12/29 14:26:34;;;;;;;15.38;8.85;;;;;;;10.29;61.52;99711.05;2101127;84;27673;-65
2022/12/29 14:29:43;;;;;;;18.80;9.03;;;;;;;10.22;61.54;99713.22;2101206;84;29349;-65
2022/12/29 14:33:05;;;;;;;11.33;8.00;;;;;;;10.17;61.53;99704.61;2101017;84;31020;-65
2022/12/29 14:36:39;;;;;;;12.45;6.58;;;;;;;10.12;61.47;99710.70;2100272;84;34416;-65
2022/12/29 14:39:45;;;;;;;12.93;6.67;;;;;;;10.05;61.37;99694.13;2101261;84;30869;-63
2022/12/29 14:42:51;;;;;;;13.75;6.15;;;;;;;9.99;61.23;99706.05;2101432;84;28212;-73
2022/12/29 14:45:59;;;;;;;23.35;13.38;;;;;;;9.95;61.29;99702.28;2100831;84;28710;-63
2022/12/29 14:49:02;;;;;;;17.80;10.80;;;;;;;9.92;61.33;99714.02;2101173;84;31017;-61
2022/12/29 14:52:21;;;;;;;13.48;10.58;;;;;;;9.87;61.32;99696.02;2100829;84;33400;-62
2022/12/29 14:55:49;;;;;;;15.40;10.50;;;;;;;9.80;61.19;99698.67;2100913;84;31104;-62
2022/12/29 14:58:56;;;;;;;14.98;10.72;;;;;;;9.71;61.20;99708.92;2101398;84;27654;-61
2022/12/29 15:01:58;;;;;;;16.80;11.20;;;;;;;9.61;61.34;99702.83;2101121;84;28689;-65
2022/12/29 15:05:02;;;;;;;17.87;11.55;;;;;;;9.52;61.43;99706.41;2055370;85;31868;-61
2022/12/29 15:08:05;;;;;;;19.85;14.63;;;;;;;9.43;61.43;99702.92;2101587;84;33021;-61
2022/12/29 15:11:23;;;;;;;17.15;13.28;;;;;;;9.32;61.49;99706.17;2100815;84;29680;-62
2022/12/29 15:14:31;;;;;;;16.40;9.43;;;;;;;9.20;61.57;99712.16;2100249;84;27666;-62
2022/12/29 15:17:36;;;;;;;14.05;8.93;;;;;;;9.08;61.62;99716.38;2101246;84;28706;-62
2022/12/29 15:20:38;;;;;;;;;;;;;;;8.95;61.72;99715.66;2076812;85;32085;-64
2022/12/29 15:23:43;;;;;;;13.90;10.55;;;;;;;8.85;61.87;99717.58;2100545;84;33060;-65
2022/12/29 15:26:49;;;;;;;18.50;10.72;;;;;;;8.73;62.00;99724.41;2100958;84;29646;-65
2022/12/29 15:30:01;;;;;;;18.85;12.45;;;;;;;8.64;62.12;99725.27;2133649;83;27745;-63